createdAt,value
2023-01-09T00:01:42.093Z,98114.38
2023-01-09T00:04:11.159Z,98108.41
2023-01-09T00:06:38.444Z,98102.22
2023-01-09T00:09:06.082Z,98100.00
2023-01-09T00:11:33.199Z,98093.81
2023-01-09T00:14:00.176Z,98091.13
2023-01-09T00:16:26.991Z,98091.84
2023-01-09T00:18:53.808Z,98082.16
2023-01-09T00:21:22.874Z,98075.13
2023-01-09T00:23:49.927Z,98065.66
2023-01-09T00:26:20.314Z,98066.97
2023-01-09T00:28:49.614Z,98059.13
2023-01-09T00:31:18.526Z,98053.16
2023-01-09T00:33:53.962Z,98054.47
2023-01-09T00:36:22.244Z,98048.03
2023-01-09T00:38:49.247Z,98046.97
2023-01-09T00:41:20.790Z,98044.50
2023-01-09T00:43:58.340Z,98043.25
2023-01-09T00:46:33.153Z,98045.69
2023-01-09T00:49:04.452Z,98038.66
2023-01-09T00:51:32.641Z,98041.13
2023-01-09T00:54:01.893Z,98035.72
2023-01-09T00:56:28.951Z,98035.19
2023-01-09T00:58:56.352Z,98034.94
2023-01-09T01:01:23.514Z,98039.50
2023-01-09T01:03:50.403Z,98038.91
2023-01-09T01:06:17.172Z,98047.06
2023-01-09T01:08:46.463Z,98035.84
2023-01-09T01:11:13.698Z,98033.75
2023-01-09T01:13:42.607Z,98021.13
2023-01-09T01:16:12.492Z,98036.66
2023-01-09T01:18:40.587Z,98031.59
2023-01-09T01:21:09.163Z,98029.16
2023-01-09T01:23:37.892Z,98017.34
2023-01-09T01:26:08.623Z,98016.28
2023-01-09T01:28:35.818Z,98010.31
2023-01-09T01:31:03.516Z,98018.97
2023-01-09T01:33:30.892Z,98013.72
2023-01-09T01:36:03.903Z,98008.91
2023-01-09T01:38:31.193Z,98013.56
2023-01-09T01:40:58.873Z,98022.44
2023-01-09T01:43:27.433Z,98021.88
2023-01-09T01:45:54.557Z,98020.44
2023-01-09T01:48:27.984Z,98025.50
2023-01-09T01:51:03.122Z,98025.16
2023-01-09T01:53:36.511Z,98028.44
2023-01-09T01:56:10.449Z,98025.25
2023-01-09T01:58:45.373Z,98037.44
2023-01-09T02:01:12.618Z,98036.50
2023-01-09T02:03:42.543Z,98041.41
2023-01-09T02:06:10.673Z,98036.56
2023-01-09T02:08:37.619Z,98042.44
2023-01-09T02:11:05.861Z,98045.34
2023-01-09T02:13:36.391Z,98033.22
2023-01-09T02:16:26.047Z,98031.59
2023-01-09T02:19:13.220Z,98035.56
2023-01-09T02:22:01.699Z,98033.69
2023-01-09T02:25:08.329Z,98032.06
2023-01-09T02:28:22.132Z,98025.63
2023-01-09T02:31:05.501Z,98020.25
2023-01-09T02:33:50.043Z,98012.41
2023-01-09T02:36:30.904Z,98004.59
2023-01-09T02:39:23.139Z,98000.28
2023-01-09T02:41:59.603Z,97993.25
2023-01-09T02:44:30.685Z,98003.75
2023-01-09T02:47:05.728Z,98008.66
2023-01-09T02:49:36.925Z,98005.41
2023-01-09T02:52:36.152Z,98023.66
2023-01-09T02:55:13.424Z,98018.28
2023-01-09T02:58:02.571Z,98004.59
2023-01-09T03:00:43.984Z,98018.50
2023-01-09T03:03:25.071Z,98023.28
2023-01-09T03:05:57.329Z,98027.63
2023-01-09T03:08:33.845Z,98023.28
2023-01-09T03:11:04.218Z,98034.53
2023-01-09T03:13:39.515Z,98037.91
2023-01-09T03:16:12.075Z,98039.34
2023-01-09T03:18:43.167Z,98038.75
2023-01-09T03:21:12.713Z,98054.28
2023-01-09T03:23:48.678Z,98056.38
2023-01-09T03:26:15.994Z,98056.63
2023-01-09T03:28:43.847Z,98069.59
2023-01-09T03:31:11.070Z,98072.28
2023-01-09T03:33:39.631Z,98084.78
2023-01-09T03:36:08.327Z,98099.84
2023-01-09T03:38:35.661Z,98112.50
2023-01-09T03:41:03.281Z,98128.16
2023-01-09T03:43:30.733Z,98135.09
2023-01-09T03:45:58.178Z,98145.47
2023-01-09T03:48:25.321Z,98153.63
2023-01-09T03:50:55.566Z,98171.44
2023-01-09T03:53:26.502Z,98177.84
2023-01-09T03:55:56.827Z,98188.50
2023-01-09T03:58:25.471Z,98197.97
2023-01-09T04:00:57.217Z,98199.47
2023-01-09T04:03:24.312Z,98193.28
2023-01-09T04:05:51.143Z,98209.97
2023-01-09T04:08:20.179Z,98207.06
2023-01-09T04:10:48.812Z,98203.06
2023-01-09T04:13:16.134Z,98221.28
2023-01-09T04:15:42.921Z,98227.84
2023-01-09T04:18:10.175Z,98225.75
2023-01-09T04:20:36.969Z,98231.56
2023-01-09T04:23:03.870Z,98249.94
2023-01-09T04:25:32.332Z,98251.44
2023-01-09T04:27:59.199Z,98250.84
2023-01-09T04:30:26.263Z,98261.13
2023-01-09T04:32:53.172Z,98258.34
2023-01-09T04:35:20.602Z,98277.16
2023-01-09T04:37:47.945Z,98266.41
2023-01-09T04:40:15.201Z,98282.16
2023-01-09T04:42:43.338Z,98287.16
2023-01-09T04:45:12.402Z,98300.00
2023-01-09T04:47:39.338Z,98308.66
2023-01-09T04:50:06.885Z,98312.75
2023-01-09T04:52:33.925Z,98301.78
2023-01-09T04:55:00.741Z,98313.78
2023-01-09T04:57:27.997Z,98319.38
2023-01-09T04:59:56.489Z,98322.31
2023-01-09T05:02:23.493Z,98318.38
2023-01-09T05:04:50.287Z,98323.75
2023-01-09T05:07:17.121Z,98326.44
2023-01-09T05:09:43.888Z,98338.66
2023-01-09T05:12:10.836Z,98340.75
2023-01-09T05:14:37.723Z,98345.69
2023-01-09T05:17:06.175Z,98339.25
2023-01-09T05:19:33.032Z,98348.59
2023-01-09T05:22:00.184Z,98343.44
2023-01-09T05:24:27.035Z,98345.09
2023-01-09T05:26:53.904Z,98346.94
2023-01-09T05:29:20.709Z,98357.47
2023-01-09T05:31:47.538Z,98373.56
2023-01-09T05:34:16.218Z,98384.31
2023-01-09T05:36:43.265Z,98384.19
2023-01-09T05:39:10.614Z,98390.63
2023-01-09T05:41:37.464Z,98387.94
2023-01-09T05:44:05.021Z,98396.81
2023-01-09T05:46:32.291Z,98403.47
2023-01-09T05:48:59.310Z,98402.41
2023-01-09T05:51:27.481Z,98398.09
2023-01-09T05:53:54.284Z,98401.59
2023-01-09T05:56:21.301Z,98408.22
2023-01-09T05:58:48.332Z,98412.19
2023-01-09T06:01:15.509Z,98418.22
2023-01-09T06:03:42.371Z,98416.38
2023-01-09T06:06:09.364Z,98417.63
2023-01-09T06:08:37.542Z,98432.34
2023-01-09T06:11:04.835Z,98444.56
2023-01-09T06:13:31.926Z,98443.59
2023-01-09T06:15:58.822Z,98449.16
2023-01-09T06:18:25.603Z,98454.75
2023-01-09T06:20:52.425Z,98454.25
2023-01-09T06:23:19.202Z,98465.81
2023-01-09T06:25:47.590Z,98462.72
2023-01-09T06:28:14.410Z,98465.72
2023-01-09T06:30:41.256Z,98467.34
2023-01-09T06:33:08.059Z,98479.81
2023-01-09T06:35:35.082Z,98467.69
2023-01-09T06:38:01.964Z,98471.41
2023-01-09T06:40:28.897Z,98474.53
2023-01-09T06:42:57.070Z,98469.34
2023-01-09T06:45:24.332Z,98482.50
2023-01-09T06:47:51.169Z,98480.91
2023-01-09T06:50:18.406Z,98494.09
2023-01-09T06:52:45.299Z,98500.66
2023-01-09T06:55:12.804Z,98506.03
2023-01-09T06:57:40.322Z,98501.56
2023-01-09T07:00:10.790Z,98518.50
2023-01-09T07:02:37.687Z,98514.31
2023-01-09T07:05:05.439Z,98501.31
2023-01-09T07:07:32.286Z,98512.66
2023-01-09T07:09:59.430Z,98504.88
2023-01-09T07:12:26.194Z,98498.25
2023-01-09T07:14:53.079Z,98493.22
2023-01-09T07:17:21.480Z,98483.16
2023-01-09T07:19:48.368Z,98485.19
2023-01-09T07:22:18.028Z,98494.47
2023-01-09T07:24:45.179Z,98489.38
2023-01-09T07:27:12.271Z,98489.81
2023-01-09T07:29:39.054Z,98493.97
2023-01-09T07:32:06.271Z,98499.84
2023-01-09T07:34:34.375Z,98502.16
2023-01-09T07:37:01.209Z,98498.47
2023-01-09T07:39:28.083Z,98500.34
2023-01-09T07:41:54.982Z,98504.75
2023-01-09T07:44:22.179Z,98507.22
2023-01-09T07:46:49.060Z,98495.34
2023-01-09T07:49:15.890Z,98499.25
2023-01-09T07:51:44.060Z,98506.06
2023-01-09T07:54:11.937Z,98502.41
2023-01-09T07:56:38.978Z,98504.47
2023-01-09T07:59:06.435Z,98502.84
2023-01-09T08:01:33.539Z,98501.22
2023-01-09T08:04:00.762Z,98504.47
2023-01-09T08:06:27.689Z,98511.72
2023-01-09T08:08:56.646Z,98511.06
2023-01-09T08:11:23.771Z,98522.25
2023-01-09T08:13:50.648Z,98521.44
2023-01-09T08:16:17.965Z,98516.09
2023-01-09T08:18:44.845Z,98528.06
2023-01-09T08:21:11.767Z,98533.78
2023-01-09T08:23:38.515Z,98532.34
2023-01-09T08:26:07.062Z,98538.91
2023-01-09T08:28:33.934Z,98538.91
2023-01-09T08:31:00.839Z,98541.91
2023-01-09T08:33:27.784Z,98549.91
2023-01-09T08:35:54.891Z,98547.81
2023-01-09T08:38:21.710Z,98548.44
2023-01-09T08:40:48.715Z,98550.47
2023-01-09T08:43:17.273Z,98537.03
2023-01-09T08:45:44.156Z,98539.06
2023-01-09T08:48:11.411Z,98537.66
2023-01-09T08:50:38.217Z,98542.59
2023-01-09T08:53:05.138Z,98550.84
2023-01-09T08:55:31.899Z,98567.94
2023-01-09T08:57:58.655Z,98564.00
2023-01-09T09:00:27.939Z,98554.34
2023-01-09T09:02:57.539Z,98554.25
2023-01-09T09:05:27.170Z,98549.34
2023-01-09T09:07:55.765Z,98542.84
2023-01-09T09:10:25.133Z,98546.09
2023-01-09T09:12:56.353Z,98550.47
2023-01-09T09:15:24.634Z,98553.56
2023-01-09T09:17:55.525Z,98549.31
2023-01-09T09:20:24.552Z,98563.47
2023-01-09T09:22:51.808Z,98557.41
2023-01-09T09:25:20.149Z,98573.22
2023-01-09T09:27:47.765Z,98573.31
2023-01-09T09:30:17.720Z,98566.78
2023-01-09T09:32:45.893Z,98579.25
2023-01-09T09:35:14.239Z,98588.31
2023-01-09T09:37:41.075Z,98568.94
2023-01-09T09:40:21.858Z,98571.28
2023-01-09T09:43:15.859Z,98567.69
2023-01-09T09:45:56.629Z,98575.75
2023-01-09T09:48:36.380Z,98557.72
2023-01-09T09:51:45.345Z,98558.91
2023-01-09T09:54:18.517Z,98556.75
2023-01-09T09:56:52.733Z,98549.69
2023-01-09T09:59:26.830Z,98552.97
2023-01-09T10:01:59.460Z,98554.03
2023-01-09T10:04:32.581Z,98547.78
2023-01-09T10:07:07.737Z,98555.63
2023-01-09T10:09:48.473Z,98558.34
2023-01-09T10:12:28.719Z,98543.06
2023-01-09T10:14:59.087Z,98549.19
2023-01-09T10:17:48.781Z,98541.69
2023-01-09T10:20:48.983Z,98531.22
2023-01-09T10:23:43.719Z,98539.22
2023-01-09T10:26:20.481Z,98542.00
2023-01-09T10:29:10.931Z,98554.28
2023-01-09T10:31:56.695Z,98550.81
2023-01-09T10:34:46.880Z,98542.34
2023-01-09T10:37:20.054Z,98536.84
2023-01-09T10:39:55.486Z,98534.75
2023-01-09T10:42:30.867Z,98529.13
2023-01-09T10:45:06.515Z,98535.78
2023-01-09T10:47:37.236Z,98528.06
2023-01-09T10:50:20.666Z,98527.97
2023-01-09T10:52:50.696Z,98524.94
2023-01-09T10:55:33.483Z,98520.25
2023-01-09T10:58:10.476Z,98516.63
2023-01-09T11:00:40.294Z,98517.84
2023-01-09T11:03:12.594Z,98506.63
2023-01-09T11:05:39.581Z,98512.34
2023-01-09T11:08:21.422Z,98503.34
2023-01-09T11:10:53.069Z,98511.03
2023-01-09T11:13:22.993Z,98509.53
2023-01-09T11:16:03.344Z,98507.06
2023-01-09T11:18:31.421Z,98514.31
2023-01-09T11:21:36.760Z,98521.22
2023-01-09T11:24:33.972Z,98523.09
2023-01-09T11:27:24.331Z,98521.94
2023-01-09T11:30:20.857Z,98504.53
2023-01-09T11:32:48.402Z,98515.31
2023-01-09T11:35:24.308Z,98519.38
2023-01-09T11:38:04.076Z,98508.38
2023-01-09T11:40:44.075Z,98501.00
2023-01-09T11:43:22.209Z,98506.38
2023-01-09T11:46:01.245Z,98497.69
2023-01-09T11:48:39.561Z,98489.53
2023-01-09T11:51:19.641Z,98491.88
2023-01-09T11:54:20.835Z,98485.81
2023-01-09T11:56:49.369Z,98490.88
2023-01-09T11:59:22.797Z,98484.72
2023-01-09T12:02:40.787Z,98478.47
2023-01-09T12:05:27.911Z,98472.66
2023-01-09T12:08:23.512Z,98481.31
2023-01-09T12:11:26.261Z,98485.88
2023-01-09T12:14:19.298Z,98496.44
2023-01-09T12:17:12.453Z,98505.31
2023-01-09T12:20:01.438Z,98509.19
2023-01-09T12:22:44.030Z,98518.56
2023-01-09T12:25:25.881Z,98546.66
2023-01-09T12:28:14.371Z,98552.78
2023-01-09T12:31:02.333Z,98553.66
2023-01-09T12:33:49.811Z,98547.09
2023-01-09T12:36:36.916Z,98548.41
2023-01-09T12:39:21.911Z,98551.81
2023-01-09T12:42:13.108Z,98546.88
2023-01-09T12:44:51.138Z,98549.53
2023-01-09T12:47:46.637Z,98546.59
2023-01-09T12:51:21.889Z,98558.91
2023-01-09T12:53:59.411Z,98562.50
2023-01-09T12:56:34.647Z,98556.72
2023-01-09T12:59:21.257Z,98553.56
2023-01-09T13:01:51.793Z,98553.69
2023-01-09T13:04:25.509Z,98549.22
2023-01-09T13:07:01.085Z,98564.56
2023-01-09T13:09:39.597Z,98564.28
2023-01-09T13:12:12.417Z,98552.72
2023-01-09T13:14:52.338Z,98550.50
2023-01-09T13:17:27.995Z,98559.81
2023-01-09T13:19:54.838Z,98556.13
2023-01-09T13:22:28.595Z,98561.78
2023-01-09T13:25:19.909Z,98561.22
2023-01-09T13:27:56.159Z,98570.59
2023-01-09T13:30:56.434Z,98573.78
2023-01-09T13:33:30.302Z,98576.59
2023-01-09T13:36:00.093Z,98587.59
2023-01-09T13:38:32.548Z,98578.34
2023-01-09T13:41:18.672Z,98581.28
2023-01-09T13:43:55.653Z,98583.28
2023-01-09T13:46:23.543Z,98585.03
2023-01-09T13:48:50.531Z,98585.13
2023-01-09T13:51:57.584Z,98587.00
2023-01-09T13:55:31.753Z,98588.88
2023-01-09T13:58:26.278Z,98584.34
2023-01-09T14:01:00.937Z,98587.72
2023-01-09T14:03:32.896Z,98583.28
2023-01-09T14:06:21.001Z,98584.66
2023-01-09T14:09:13.230Z,98596.38
2023-01-09T14:11:40.806Z,98578.19
2023-01-09T14:14:27.956Z,98593.06
2023-01-09T14:16:55.239Z,98591.22
2023-01-09T14:19:35.306Z,98599.50
2023-01-09T14:22:03.697Z,98601.59
2023-01-09T14:24:40.070Z,98599.81
2023-01-09T14:27:49.916Z,98594.03
2023-01-09T14:30:30.843Z,98606.47
2023-01-09T14:32:59.905Z,98629.63
2023-01-09T14:35:37.265Z,98631.38
2023-01-09T14:38:19.722Z,98627.84
2023-01-09T14:40:54.209Z,98631.72
2023-01-09T14:43:32.963Z,98638.03
2023-01-09T14:46:12.929Z,98645.75
2023-01-09T14:48:55.839Z,98645.59
2023-01-09T14:51:27.675Z,98647.47
2023-01-09T14:53:57.125Z,98647.78
2023-01-09T14:56:29.473Z,98663.09
2023-01-09T14:59:12.116Z,98662.72
2023-01-09T15:01:46.834Z,98669.16
2023-01-09T15:04:30.636Z,98686.38
2023-01-09T15:06:58.662Z,98696.06
2023-01-09T15:09:32.491Z,98723.16
2023-01-09T15:12:08.154Z,98723.44
2023-01-09T15:14:40.076Z,98717.88
2023-01-09T15:17:21.019Z,98736.94
2023-01-09T15:19:49.049Z,98733.84
2023-01-09T15:22:29.183Z,98736.31
2023-01-09T15:24:56.761Z,98731.09
2023-01-09T15:27:24.185Z,98738.31
2023-01-09T15:29:53.268Z,98736.50
2023-01-09T15:32:27.813Z,98744.38
2023-01-09T15:34:57.057Z,98748.94
2023-01-09T15:37:30.156Z,98753.91
2023-01-09T15:40:00.652Z,98761.66
2023-01-09T15:42:33.459Z,98761.47
2023-01-09T15:45:01.985Z,98767.06
2023-01-09T15:47:32.661Z,98760.03
2023-01-09T15:50:03.594Z,98775.75
2023-01-09T15:52:31.839Z,98769.97
2023-01-09T15:54:58.667Z,98767.47
2023-01-09T15:57:33.042Z,98773.78
2023-01-09T16:00:37.700Z,98776.09
2023-01-09T16:03:19.413Z,98771.22
2023-01-09T16:05:51.562Z,98772.06
2023-01-09T16:08:27.147Z,98772.31
2023-01-09T16:10:59.135Z,98788.41
2023-01-09T16:13:30.424Z,98792.47
2023-01-09T16:16:01.459Z,98808.41
2023-01-09T16:18:34.888Z,98810.09
2023-01-09T16:21:21.818Z,98813.38
2023-01-09T16:23:55.573Z,98812.59
2023-01-09T16:26:26.555Z,98813.19
2023-01-09T16:28:55.184Z,98821.84
2023-01-09T16:31:27.051Z,98824.75
2023-01-09T16:33:59.612Z,98830.31
2023-01-09T16:36:28.267Z,98826.19
2023-01-09T16:38:57.374Z,98827.44
2023-01-09T16:41:24.241Z,98830.13
2023-01-09T16:43:52.456Z,98836.91
2023-01-09T16:46:21.388Z,98849.09
2023-01-09T16:48:48.757Z,98857.56
2023-01-09T16:51:20.423Z,98859.63
2023-01-09T16:53:48.814Z,98850.34
2023-01-09T16:56:21.087Z,98855.28
2023-01-09T16:58:48.883Z,98846.81
2023-01-09T17:01:16.150Z,98854.25
2023-01-09T17:03:44.197Z,98854.88
2023-01-09T17:06:21.339Z,98856.53
2023-01-09T17:08:48.254Z,98863.34
2023-01-09T17:11:21.731Z,98870.78
2023-01-09T17:13:49.174Z,98871.59
2023-01-09T17:16:17.713Z,98874.06
2023-01-09T17:18:45.051Z,98873.66
2023-01-09T17:21:20.851Z,98878.19
2023-01-09T17:23:49.323Z,98876.94
2023-01-09T17:26:20.715Z,98882.53
2023-01-09T17:28:50.997Z,98892.44
2023-01-09T17:31:19.281Z,98878.59
2023-01-09T17:33:46.960Z,98881.28
2023-01-09T17:36:29.875Z,98887.47
2023-01-09T17:38:58.218Z,98901.72
2023-01-09T17:41:29.315Z,98886.47
2023-01-09T17:43:59.535Z,98898.81
2023-01-09T17:46:31.171Z,98900.47
2023-01-09T17:49:04.477Z,98906.66
2023-01-09T17:51:33.333Z,98913.25
2023-01-09T17:54:01.840Z,98916.59
2023-01-09T17:56:47.844Z,98924.84
2023-01-09T17:59:21.540Z,98927.91
2023-01-09T18:01:48.950Z,98929.97
2023-01-09T18:04:15.840Z,98933.06
2023-01-09T18:06:44.575Z,98941.75
2023-01-09T18:09:16.195Z,98942.16
2023-01-09T18:11:43.971Z,98953.28
2023-01-09T18:14:13.491Z,98948.09
2023-01-09T18:16:40.921Z,98951.81
2023-01-09T18:19:08.984Z,98960.69
2023-01-09T18:21:36.142Z,98963.78
2023-01-09T18:24:05.182Z,98970.00
2023-01-09T18:26:32.032Z,98981.38
2023-01-09T18:29:00.911Z,98985.47
2023-01-09T18:31:29.643Z,98998.09
2023-01-09T18:33:59.089Z,98992.94
2023-01-09T18:36:28.224Z,98999.75
2023-01-09T18:38:56.925Z,99008.41
2023-01-09T18:41:25.814Z,99021.84
2023-01-09T18:43:55.337Z,99018.97
2023-01-09T18:46:23.229Z,99022.28
2023-01-09T18:48:52.493Z,99025.59
2023-01-09T18:51:19.892Z,99031.13
2023-01-09T18:53:46.814Z,99028.88
2023-01-09T18:56:14.153Z,99035.88
2023-01-09T18:58:42.521Z,99045.19
2023-01-09T19:01:12.697Z,99044.34
2023-01-09T19:03:40.400Z,99052.81
2023-01-09T19:06:07.946Z,99064.78
2023-01-09T19:08:36.469Z,99059.22
2023-01-09T19:11:04.596Z,99073.25
2023-01-09T19:13:34.065Z,99074.09
2023-01-09T19:16:05.498Z,99075.94
2023-01-09T19:18:34.732Z,99086.25
2023-01-09T19:21:01.927Z,99088.94
2023-01-09T19:23:29.316Z,99105.88
2023-01-09T19:25:56.190Z,99097.44
2023-01-09T19:28:23.249Z,99106.72
2023-01-09T19:30:55.530Z,99107.34
2023-01-09T19:33:24.740Z,99113.13
2023-01-09T19:35:52.362Z,99118.69
2023-01-09T19:38:19.320Z,99117.03
2023-01-09T19:40:46.208Z,99123.03
2023-01-09T19:43:13.507Z,99125.50
2023-01-09T19:45:40.461Z,99121.78
2023-01-09T19:48:07.353Z,99128.41
2023-01-09T19:50:35.578Z,99123.03
2023-01-09T19:53:02.482Z,99127.59
2023-01-09T19:55:29.634Z,99135.03
2023-01-09T19:57:56.569Z,99135.44
2023-01-09T20:00:23.840Z,99143.28
2023-01-09T20:02:50.814Z,99151.34
2023-01-09T20:05:17.861Z,99155.88
2023-01-09T20:07:46.308Z,99158.75
2023-01-09T20:10:13.295Z,99161.44
2023-01-09T20:12:40.094Z,99151.94
2023-01-09T20:15:08.592Z,99149.91
2023-01-09T20:17:36.138Z,99156.72
2023-01-09T20:20:03.379Z,99162.28
2023-01-09T20:22:30.208Z,99166.00
2023-01-09T20:24:58.780Z,99168.91
2023-01-09T20:27:25.691Z,99175.72
2023-01-09T20:29:52.836Z,99179.44
2023-01-09T20:32:19.679Z,99184.19
2023-01-09T20:34:47.056Z,99190.41
2023-01-09T20:37:13.927Z,99199.06
2023-01-09T20:39:40.877Z,99200.50
2023-01-09T20:42:09.118Z,99203.19
2023-01-09T20:44:35.963Z,99204.63
2023-01-09T20:47:02.935Z,99203.81
2023-01-09T20:49:29.894Z,99219.31
2023-01-09T20:51:56.842Z,99230.44
2023-01-09T20:54:24.189Z,99233.75
2023-01-09T20:56:51.380Z,99233.13
2023-01-09T20:59:20.363Z,99239.97
2023-01-09T21:01:47.728Z,99237.50
2023-01-09T21:04:15.105Z,99238.31
2023-01-09T21:06:41.988Z,99249.03
2023-01-09T21:09:08.998Z,99247.00
2023-01-09T21:11:36.258Z,99249.03
2023-01-09T21:14:03.153Z,99253.59
2023-01-09T21:16:31.692Z,99252.59
2023-01-09T21:18:58.783Z,99256.97
2023-01-09T21:21:27.157Z,99261.91
2023-01-09T21:23:56.979Z,99263.13
2023-01-09T21:26:26.408Z,99258.56
2023-01-09T21:28:57.020Z,99256.94
2023-01-09T21:31:28.318Z,99261.84
2023-01-09T21:33:56.760Z,99267.84
2023-01-09T21:36:23.629Z,99271.78
2023-01-09T21:38:51.017Z,99272.22
2023-01-09T21:41:20.847Z,99268.31
2023-01-09T21:43:48.476Z,99272.19
2023-01-09T21:46:17.770Z,99271.59
2023-01-09T21:48:44.891Z,99280.47
2023-01-09T21:51:13.130Z,99287.09
2023-01-09T21:53:40.150Z,99284.63
2023-01-09T21:56:08.085Z,99294.13
2023-01-09T21:58:34.837Z,99293.91
2023-01-09T22:01:01.746Z,99292.06
2023-01-09T22:03:29.394Z,99304.88
2023-01-09T22:05:56.392Z,99312.94
2023-01-09T22:08:24.522Z,99309.63
2023-01-09T22:10:54.986Z,99314.81
2023-01-09T22:13:21.864Z,99318.53
2023-01-09T22:15:48.725Z,99321.41
2023-01-09T22:18:15.890Z,99334.44
2023-01-09T22:20:44.463Z,99330.88
2023-01-09T22:23:11.959Z,99340.38
2023-01-09T22:25:40.468Z,99334.56
2023-01-09T22:28:07.523Z,99346.53
2023-01-09T22:30:34.544Z,99340.97
2023-01-09T22:33:01.333Z,99358.53
2023-01-09T22:35:28.205Z,99356.88
2023-01-09T22:37:55.018Z,99355.19
2023-01-09T22:40:21.812Z,99346.53
2023-01-09T22:42:53.152Z,99357.50
2023-01-09T22:45:20.441Z,99360.19
2023-01-09T22:47:47.492Z,99367.63
2023-01-09T22:50:16.246Z,99373.25
2023-01-09T22:52:43.076Z,99381.69
2023-01-09T22:55:10.390Z,99388.72
2023-01-09T22:57:37.377Z,99381.91
2023-01-09T23:00:08.675Z,99388.28
2023-01-09T23:02:35.782Z,99397.47
2023-01-09T23:05:02.712Z,99393.34
2023-01-09T23:07:29.973Z,99400.56
2023-01-09T23:09:56.738Z,99403.66
2023-01-09T23:12:23.539Z,99403.19
2023-01-09T23:14:50.400Z,99403.19
2023-01-09T23:17:18.906Z,99405.63
2023-01-09T23:19:45.774Z,99419.09
2023-01-09T23:22:12.850Z,99409.38
2023-01-09T23:24:39.661Z,99412.69
2023-01-09T23:27:06.521Z,99405.69
2023-01-09T23:29:33.628Z,99420.44
2023-01-09T23:32:06.091Z,99419.66
2023-01-09T23:34:34.302Z,99420.47
2023-01-09T23:37:01.485Z,99429.78
2023-01-09T23:39:28.271Z,99427.91
2023-01-09T23:41:55.286Z,99429.41
2023-01-09T23:44:22.335Z,99429.78
2023-01-09T23:46:49.414Z,99427.09
2023-01-09T23:49:16.459Z,99431.03
2023-01-09T23:51:45.023Z,99441.31
2023-01-09T23:54:12.291Z,99441.50
2023-01-09T23:56:39.208Z,99448.84
2023-01-09T23:59:08.356Z,99446.41
